Conger, Iowa
Current Conditions -  °F | °C
As of 8:15 AM on Monday 22 Dec 2014 (Local Time) from KI75 Reporting Station
Drizzle Drizzle  
Wind Chill: 32°   Ceiling: 1200
Heat Index: 39°   Visibility: 4mi
Dew Point: 37°   Wind: 13mph
Humidity: 92%   Direction: 130°SE
Pressure: 29.62"   Gusts: 18mph
Location:  41.2933°N, 93.7977°W
Report Text: KI75 221415Z AUTO 13011G16KT 4SM DZ OVC012 04/03 A2962 RMK AO2 T00400028
Loading
Personal Weather Stations






























Interactive Weather Map New forecast layout! Learn more

10-Day Weather Forecast

Advertisements
Track Severe Weather on mobile